createdAt,value
2017-05-31T00:00:10.995Z,99.90
2017-05-31T00:02:39.995Z,99.90
2017-05-31T00:05:08.122Z,99.90
2017-05-31T00:07:36.977Z,99.90
2017-05-31T00:10:05.334Z,99.90
2017-05-31T00:12:33.515Z,99.90
2017-05-31T00:15:02.453Z,99.90
2017-05-31T00:17:31.455Z,99.90
2017-05-31T00:20:00.314Z,99.90
2017-05-31T00:22:29.234Z,99.90
2017-05-31T00:24:58.285Z,99.90
2017-05-31T00:27:26.474Z,99.90
2017-05-31T00:29:54.645Z,99.90
2017-05-31T00:32:23.790Z,99.90
2017-05-31T00:34:51.969Z,99.90
2017-05-31T00:37:20.149Z,99.90
2017-05-31T00:39:48.413Z,99.90
2017-05-31T00:42:17.322Z,99.90
2017-05-31T00:44:45.489Z,99.90
2017-05-31T00:47:13.805Z,99.90
2017-05-31T00:49:42.761Z,99.90
2017-05-31T00:52:11.145Z,99.90
2017-05-31T00:54:40.249Z,99.90
2017-05-31T00:57:09.213Z,99.90
2017-05-31T00:59:37.400Z,99.90
2017-05-31T01:02:06.454Z,99.90
2017-05-31T01:04:34.670Z,99.90
2017-05-31T01:07:02.791Z,99.90
2017-05-31T01:09:31.061Z,99.90
2017-05-31T01:11:59.146Z,99.90
2017-05-31T01:14:28.074Z,99.90
2017-05-31T01:16:56.365Z,99.90
2017-05-31T01:19:24.494Z,99.90
2017-05-31T01:21:53.409Z,99.90
2017-05-31T01:24:21.698Z,99.90
2017-05-31T01:26:50.654Z,99.90
2017-05-31T01:29:18.824Z,99.90
2017-05-31T01:31:47.089Z,99.90
2017-05-31T01:34:16.073Z,99.90
2017-05-31T01:36:44.261Z,99.90
2017-05-31T01:39:13.317Z,99.90
2017-05-31T01:41:41.553Z,99.90
2017-05-31T01:44:10.469Z,99.90
2017-05-31T01:46:38.710Z,99.90
2017-05-31T01:49:07.607Z,99.90
2017-05-31T01:51:35.890Z,99.90
2017-05-31T01:54:04.382Z,99.90
2017-05-31T01:56:33.359Z,99.90
2017-05-31T01:59:01.441Z,99.90
2017-05-31T02:01:30.489Z,99.90
2017-05-31T02:03:58.674Z,99.90
2017-05-31T02:06:27.699Z,99.90
2017-05-31T02:08:56.075Z,99.90
2017-05-31T02:11:24.258Z,99.90
2017-05-31T02:13:53.234Z,99.90
2017-05-31T02:16:21.512Z,99.90
2017-05-31T02:18:49.694Z,99.90
2017-05-31T02:21:17.825Z,99.90
2017-05-31T02:23:46.877Z,99.90
2017-05-31T02:26:15.098Z,99.90
2017-05-31T02:28:43.269Z,99.90
2017-05-31T02:31:12.318Z,99.90
2017-05-31T02:33:40.505Z,99.90
2017-05-31T02:36:08.698Z,99.90
2017-05-31T02:38:36.967Z,99.90
2017-05-31T02:41:05.945Z,99.90
2017-05-31T02:43:34.909Z,99.90
2017-05-31T02:46:03.965Z,99.90
2017-05-31T02:48:32.207Z,99.90
2017-05-31T02:51:01.152Z,99.90
2017-05-31T02:53:30.429Z,99.90
2017-05-31T02:55:59.421Z,99.90
2017-05-31T02:58:27.565Z,99.90
2017-05-31T03:00:55.914Z,99.90
2017-05-31T03:03:24.786Z,99.90
2017-05-31T03:05:52.965Z,99.90
2017-05-31T03:08:21.279Z,99.90
2017-05-31T03:10:50.198Z,99.90
2017-05-31T03:13:18.802Z,99.90
2017-05-31T03:15:47.942Z,99.90
2017-05-31T03:18:16.118Z,99.90
2017-05-31T03:20:44.381Z,99.90
2017-05-31T03:23:13.395Z,99.90
2017-05-31T03:25:41.606Z,99.90
2017-05-31T03:28:10.577Z,99.90
2017-05-31T03:30:38.944Z,99.90
2017-05-31T03:33:07.932Z,99.90
2017-05-31T03:35:36.062Z,99.90
2017-05-31T03:38:05.109Z,99.90
2017-05-31T03:40:33.286Z,99.90
2017-05-31T03:43:02.270Z,99.90
2017-05-31T03:45:30.601Z,99.90
2017-05-31T03:47:59.501Z,99.90
2017-05-31T03:50:27.713Z,99.90
2017-05-31T03:52:56.130Z,99.70
2017-05-31T03:55:25.046Z,98.90
2017-05-31T03:57:53.306Z,98.90
2017-05-31T04:00:22.402Z,98.10
2017-05-31T04:02:50.669Z,98.10
2017-05-31T04:05:18.961Z,97.90
2017-05-31T04:07:47.370Z,97.60
2017-05-31T04:10:16.333Z,97.20
2017-05-31T04:12:45.305Z,96.60
2017-05-31T04:15:14.355Z,96.40
2017-05-31T04:17:43.265Z,96.30
2017-05-31T04:20:11.484Z,96.30
2017-05-31T04:22:40.577Z,95.30
2017-05-31T04:25:08.741Z,95.30
2017-05-31T04:27:37.605Z,94.30
2017-05-31T04:30:05.926Z,94.30
2017-05-31T04:32:34.809Z,93.70
2017-05-31T04:35:03.026Z,93.60
2017-05-31T04:37:32.127Z,92.40
2017-05-31T04:40:00.398Z,92.40
2017-05-31T04:42:29.422Z,91.10
2017-05-31T04:44:57.681Z,91.10
2017-05-31T04:47:25.974Z,85.70
2017-05-31T04:49:54.850Z,68.20
2017-05-31T04:52:23.919Z,62.30
2017-05-31T04:54:52.061Z,61.70
2017-05-31T04:57:21.137Z,55.90
2017-05-31T04:59:50.329Z,55.60
2017-05-31T05:02:19.197Z,57.50
2017-05-31T05:04:47.392Z,57.50
2017-05-31T05:07:15.666Z,59.90
2017-05-31T05:09:44.634Z,64.90
2017-05-31T05:12:12.858Z,64.90
2017-05-31T05:14:41.811Z,65.10
2017-05-31T05:17:10.002Z,65.10
2017-05-31T05:19:38.890Z,56.10
2017-05-31T05:22:07.167Z,56.10
2017-05-31T05:24:36.091Z,51.20
2017-05-31T05:27:04.218Z,51.20
2017-05-31T05:29:32.581Z,50.20
2017-05-31T05:32:00.775Z,48.10
2017-05-31T05:34:29.717Z,47.80
2017-05-31T05:36:58.137Z,47.80
2017-05-31T05:39:26.976Z,51.30
2017-05-31T05:41:55.942Z,53.40
2017-05-31T05:44:24.246Z,53.40
2017-05-31T05:46:53.086Z,55.90
2017-05-31T05:49:22.076Z,56.60
2017-05-31T05:51:50.406Z,56.60
2017-05-31T05:54:19.273Z,56.10
2017-05-31T05:56:47.437Z,56.00
2017-05-31T05:59:16.491Z,54.30
2017-05-31T06:01:44.687Z,54.20
2017-05-31T06:04:13.655Z,47.90
2017-05-31T06:06:47.549Z,46.80
2017-05-31T06:09:15.895Z,46.80
2017-05-31T06:11:44.812Z,43.50
2017-05-31T06:14:13.209Z,43.40
2017-05-31T06:16:41.337Z,41.60
2017-05-31T06:19:09.555Z,40.80
2017-05-31T06:21:38.601Z,38.90
2017-05-31T06:24:06.850Z,38.90
2017-05-31T06:26:34.982Z,40.10
2017-05-31T06:29:04.018Z,43.60
2017-05-31T06:31:32.234Z,43.60
2017-05-31T06:34:00.441Z,43.50
2017-05-31T06:36:29.449Z,45.60
2017-05-31T06:38:57.655Z,45.60
2017-05-31T06:41:26.588Z,46.50
2017-05-31T06:43:54.882Z,46.50
2017-05-31T06:46:23.755Z,46.70
2017-05-31T06:48:51.926Z,46.70
2017-05-31T06:51:21.050Z,47.70
2017-05-31T06:53:49.144Z,47.70
2017-05-31T06:56:17.370Z,46.80
2017-05-31T06:58:46.418Z,49.50
2017-05-31T07:01:14.648Z,49.50
2017-05-31T07:03:42.950Z,50.00
2017-05-31T07:06:12.046Z,47.80
2017-05-31T07:08:41.056Z,45.10
2017-05-31T07:11:09.997Z,43.20
2017-05-31T07:13:39.103Z,42.30
2017-05-31T07:16:08.062Z,42.00
2017-05-31T07:18:37.005Z,41.10
2017-05-31T07:21:06.683Z,37.60
2017-05-31T07:23:35.766Z,37.50
2017-05-31T07:26:04.594Z,37.60
2017-05-31T07:28:33.653Z,40.20
2017-05-31T07:31:02.595Z,42.80
2017-05-31T07:33:30.845Z,42.80
2017-05-31T07:35:59.937Z,43.20
2017-05-31T07:51:08.099Z,52.80
2017-05-31T07:53:37.010Z,53.40
2017-05-31T07:56:05.878Z,54.50
2017-05-31T07:58:34.140Z,54.50
2017-05-31T08:01:03.051Z,55.00
2017-05-31T08:03:31.962Z,56.10
2017-05-31T08:06:01.241Z,56.20
2017-05-31T08:08:30.110Z,56.50
2017-05-31T08:10:58.978Z,56.40
2017-05-31T08:13:28.021Z,57.20
2017-05-31T08:15:56.994Z,57.20
2017-05-31T08:18:25.118Z,57.10
2017-05-31T08:20:54.224Z,57.60
2017-05-31T08:23:23.134Z,57.90
2017-05-31T08:25:51.319Z,57.90
2017-05-31T08:28:19.529Z,58.80
2017-05-31T08:30:47.702Z,58.40
2017-05-31T08:33:16.629Z,60.00
2017-05-31T08:35:45.634Z,61.00
2017-05-31T08:38:14.546Z,61.00
2017-05-31T08:40:42.721Z,61.10
2017-05-31T08:43:11.046Z,61.90
2017-05-31T08:45:39.969Z,62.20
2017-05-31T08:48:08.945Z,62.00
2017-05-31T08:50:38.026Z,61.20
2017-05-31T08:53:06.202Z,61.20
2017-05-31T08:55:34.378Z,62.00
2017-05-31T08:58:03.465Z,61.80
2017-05-31T09:00:32.338Z,61.50
2017-05-31T09:03:00.489Z,61.50
2017-05-31T09:05:28.746Z,61.00
2017-05-31T09:07:56.996Z,61.10
2017-05-31T09:10:26.030Z,61.50
2017-05-31T09:12:55.033Z,61.70
2017-05-31T09:15:23.269Z,61.70
2017-05-31T09:17:52.193Z,62.30
2017-05-31T09:20:21.253Z,62.00
2017-05-31T09:22:49.398Z,62.00
2017-05-31T09:25:18.367Z,61.70
2017-05-31T09:27:47.515Z,60.90
2017-05-31T09:30:15.606Z,60.90
2017-05-31T09:32:44.622Z,58.60
2017-05-31T09:35:13.817Z,57.60
2017-05-31T09:37:42.787Z,57.40
2017-05-31T09:40:11.791Z,57.80
2017-05-31T09:42:40.895Z,57.70
2017-05-31T09:45:09.064Z,57.70
2017-05-31T09:47:38.073Z,58.10
2017-05-31T09:50:06.428Z,58.10
2017-05-31T09:52:35.335Z,59.20
2017-05-31T09:55:03.475Z,59.20
2017-05-31T09:57:32.719Z,59.90
2017-05-31T10:12:34.067Z,58.90
2017-05-31T10:15:03.023Z,58.20
2017-05-31T10:17:32.089Z,59.50
2017-05-31T10:20:01.095Z,58.90
2017-05-31T10:22:29.479Z,58.90
2017-05-31T10:24:57.750Z,59.50
2017-05-31T10:27:26.059Z,60.50
2017-05-31T10:29:55.070Z,60.50
2017-05-31T10:32:24.123Z,59.40
2017-05-31T10:34:52.392Z,59.30
2017-05-31T10:37:21.374Z,59.20
2017-05-31T10:39:50.428Z,59.90
2017-05-31T10:42:19.566Z,58.10
2017-05-31T10:44:47.783Z,58.10
2017-05-31T10:47:16.735Z,58.30
2017-05-31T10:49:45.039Z,58.20
2017-05-31T10:52:13.976Z,58.30
2017-05-31T10:54:42.947Z,56.90
2017-05-31T10:57:12.351Z,57.80
2017-05-31T10:59:41.025Z,57.70
2017-05-31T11:02:09.266Z,59.80
2017-05-31T11:04:37.559Z,60.70
2017-05-31T11:07:06.471Z,61.50
2017-05-31T11:09:35.416Z,60.90
2017-05-31T11:12:03.783Z,61.00
2017-05-31T11:14:32.927Z,60.90
2017-05-31T11:17:01.883Z,61.00
2017-05-31T11:19:31.127Z,62.30
2017-05-31T11:22:00.035Z,62.70
2017-05-31T11:24:28.979Z,64.60
2017-05-31T11:26:58.132Z,66.60
2017-05-31T11:29:27.097Z,67.80
2017-05-31T11:31:55.403Z,67.00
2017-05-31T11:34:24.459Z,68.00
2017-05-31T11:36:53.319Z,66.90
2017-05-31T11:39:21.495Z,66.90
2017-05-31T11:41:50.571Z,71.60
2017-05-31T11:44:19.509Z,71.50
2017-05-31T11:46:48.402Z,69.90
2017-05-31T11:49:17.495Z,70.20
2017-05-31T11:51:46.477Z,68.60
2017-05-31T11:54:15.437Z,68.80
2017-05-31T11:56:44.522Z,67.80
2017-05-31T11:59:12.805Z,67.80
2017-05-31T12:01:41.654Z,64.10
2017-05-31T12:04:10.658Z,63.60
2017-05-31T12:06:39.602Z,64.30
2017-05-31T12:09:07.787Z,64.30
2017-05-31T12:11:37.406Z,61.10
2017-05-31T12:14:06.393Z,64.50
2017-05-31T12:16:35.353Z,65.50
2017-05-31T12:19:04.478Z,66.30
2017-05-31T12:21:32.825Z,66.30
2017-05-31T12:24:01.018Z,66.50
2017-05-31T12:26:29.430Z,67.90
2017-05-31T12:28:58.417Z,69.20
2017-05-31T12:31:26.706Z,69.20
2017-05-31T12:33:55.078Z,69.40
2017-05-31T12:36:23.271Z,69.10
2017-05-31T12:38:52.165Z,71.20
2017-05-31T12:41:20.573Z,71.20
2017-05-31T12:43:49.518Z,73.90
2017-05-31T12:46:18.414Z,73.50
2017-05-31T12:48:47.534Z,74.50
2017-05-31T12:51:15.742Z,74.60
2017-05-31T12:53:43.986Z,73.90
2017-05-31T12:56:12.241Z,73.60
2017-05-31T12:58:41.949Z,75.90
2017-05-31T13:01:10.889Z,75.70
2017-05-31T13:03:39.225Z,75.70
2017-05-31T13:06:08.178Z,77.90
2017-05-31T13:08:36.369Z,77.90
2017-05-31T13:11:05.358Z,77.40
2017-05-31T13:13:33.510Z,77.40
2017-05-31T13:16:02.449Z,78.00
2017-05-31T13:18:31.529Z,79.80
2017-05-31T13:21:00.482Z,81.50
2017-05-31T13:23:28.757Z,81.40
2017-05-31T13:25:57.829Z,81.20
2017-05-31T13:28:26.729Z,80.90
2017-05-31T13:30:55.646Z,83.40
2017-05-31T13:33:24.762Z,84.90
2017-05-31T13:35:53.709Z,85.10
2017-05-31T13:38:22.646Z,85.10
2017-05-31T13:40:51.020Z,85.10
2017-05-31T13:43:19.918Z,85.20
2017-05-31T13:45:48.814Z,85.70
2017-05-31T13:48:17.897Z,86.70
2017-05-31T13:50:46.845Z,86.50
2017-05-31T13:53:15.846Z,87.00
2017-05-31T13:55:44.878Z,86.90
2017-05-31T13:58:13.094Z,86.90
2017-05-31T14:00:49.082Z,85.80
2017-05-31T14:03:17.227Z,85.80
2017-05-31T14:05:46.083Z,87.30
2017-05-31T14:08:15.158Z,87.70
2017-05-31T14:10:44.098Z,87.90
2017-05-31T14:13:12.258Z,87.90
2017-05-31T14:15:41.398Z,89.70
2017-05-31T14:18:09.560Z,89.70
2017-05-31T14:20:37.730Z,89.10
2017-05-31T14:23:06.899Z,88.20
2017-05-31T14:25:35.770Z,90.20
2017-05-31T14:28:04.842Z,90.30
2017-05-31T14:30:33.224Z,90.30
2017-05-31T14:33:01.426Z,89.40
2017-05-31T14:35:29.622Z,90.00
2017-05-31T14:37:58.674Z,90.20
2017-05-31T14:40:26.882Z,90.20
2017-05-31T14:42:55.738Z,91.10
2017-05-31T14:45:24.126Z,91.10
2017-05-31T14:47:53.165Z,92.20
2017-05-31T14:50:21.466Z,92.20
2017-05-31T14:52:50.602Z,93.60
2017-05-31T14:55:19.609Z,94.30
2017-05-31T14:57:48.517Z,94.60
2017-05-31T15:00:16.865Z,94.60
2017-05-31T15:02:45.974Z,95.40
2017-05-31T15:05:14.203Z,95.40
2017-05-31T15:07:43.198Z,95.90
2017-05-31T15:10:12.210Z,96.10
2017-05-31T15:12:40.478Z,96.10
2017-05-31T15:15:08.883Z,96.50
2017-05-31T15:17:37.829Z,97.20
2017-05-31T15:20:06.826Z,97.00
2017-05-31T15:22:35.869Z,97.10
2017-05-31T15:25:04.285Z,97.10
2017-05-31T15:27:33.366Z,96.90
2017-05-31T15:30:02.397Z,96.50
2017-05-31T15:32:31.329Z,97.20
2017-05-31T15:34:59.482Z,97.10
2017-05-31T15:37:28.531Z,97.50
2017-05-31T15:39:57.578Z,97.70
2017-05-31T15:42:25.838Z,97.70
2017-05-31T15:44:55.053Z,98.20
2017-05-31T15:47:23.334Z,98.20
2017-05-31T15:49:52.245Z,98.70
2017-05-31T15:52:21.385Z,98.70
2017-05-31T15:54:50.407Z,99.00
2017-05-31T15:57:18.689Z,99.00
2017-05-31T15:59:47.952Z,99.10
2017-05-31T16:02:16.225Z,99.00
2017-05-31T16:04:45.328Z,98.70
2017-05-31T16:07:14.406Z,98.40
2017-05-31T16:09:43.348Z,98.60
2017-05-31T16:12:11.857Z,98.60
2017-05-31T16:14:41.062Z,99.00
2017-05-31T16:17:09.482Z,99.00
2017-05-31T16:19:37.697Z,99.00
2017-05-31T16:22:06.850Z,98.60
2017-05-31T16:24:35.841Z,98.30
2017-05-31T16:27:04.876Z,99.90
2017-05-31T16:29:34.145Z,99.70
2017-05-31T16:32:03.062Z,98.80
2017-05-31T16:34:32.101Z,98.50
2017-05-31T16:37:00.518Z,98.50
2017-05-31T16:39:29.606Z,99.80
2017-05-31T16:41:58.548Z,99.90
2017-05-31T16:44:27.664Z,99.90
2017-05-31T16:46:56.702Z,99.60
2017-05-31T16:49:25.643Z,98.20
2017-05-31T16:51:54.894Z,97.80
2017-05-31T16:54:23.902Z,99.90
2017-05-31T16:56:52.802Z,99.90
2017-05-31T16:59:21.850Z,99.90
2017-05-31T17:01:50.046Z,99.90
2017-05-31T17:04:18.335Z,99.90
2017-05-31T17:06:47.361Z,99.70
2017-05-31T17:09:15.612Z,99.70
2017-05-31T17:11:44.558Z,99.50
2017-05-31T17:14:12.883Z,99.50
2017-05-31T17:16:41.826Z,99.80
2017-05-31T17:19:10.137Z,99.80
2017-05-31T17:21:39.275Z,99.90
2017-05-31T17:24:09.054Z,99.90
2017-05-31T17:26:38.066Z,99.90
2017-05-31T17:29:07.214Z,99.90
2017-05-31T17:31:35.639Z,99.90
2017-05-31T17:34:04.518Z,99.90
2017-05-31T17:36:33.741Z,99.90
2017-05-31T17:39:02.738Z,99.90
2017-05-31T17:41:30.945Z,99.90
2017-05-31T17:43:59.985Z,99.90
2017-05-31T17:46:28.929Z,99.90
2017-05-31T17:48:57.126Z,99.90
2017-05-31T17:51:26.158Z,99.90
2017-05-31T17:53:55.097Z,99.90
2017-05-31T17:56:24.786Z,99.90
2017-05-31T17:58:53.863Z,99.90
2017-05-31T18:01:22.798Z,99.90
2017-05-31T18:03:51.737Z,99.70
2017-05-31T18:06:20.058Z,99.80
2017-05-31T18:08:55.170Z,99.80
2017-05-31T18:11:23.450Z,99.90
2017-05-31T18:13:52.489Z,99.90
2017-05-31T18:16:21.470Z,99.90
2017-05-31T18:18:50.728Z,99.90
2017-05-31T18:21:19.051Z,99.90
2017-05-31T18:23:48.202Z,99.90
2017-05-31T18:26:16.690Z,99.90
2017-05-31T18:28:45.681Z,99.90
2017-05-31T18:31:14.701Z,99.90
2017-05-31T18:33:43.929Z,99.90
2017-05-31T18:36:12.938Z,99.90
2017-05-31T18:38:41.870Z,99.90
2017-05-31T18:41:10.250Z,99.90
2017-05-31T18:43:38.457Z,99.90
2017-05-31T18:46:06.606Z,99.90
2017-05-31T18:48:35.765Z,99.90
2017-05-31T18:51:04.667Z,99.90
2017-05-31T18:53:32.953Z,99.90
2017-05-31T18:56:02.017Z,99.90
2017-05-31T18:58:30.917Z,99.90
2017-05-31T19:00:59.981Z,99.90
2017-05-31T19:03:29.122Z,99.90
2017-05-31T19:05:57.413Z,99.90
2017-05-31T19:08:25.635Z,99.90
2017-05-31T19:10:54.928Z,99.90
2017-05-31T19:13:23.830Z,99.90
2017-05-31T19:15:52.778Z,99.90
2017-05-31T19:18:21.898Z,99.90
2017-05-31T19:20:50.838Z,99.90
2017-05-31T19:23:19.806Z,99.90
2017-05-31T19:25:48.886Z,99.90
2017-05-31T19:28:17.778Z,99.90
2017-05-31T19:30:45.998Z,99.90
2017-05-31T19:33:14.283Z,99.90
2017-05-31T19:35:43.427Z,99.90
2017-05-31T19:38:12.393Z,99.90
2017-05-31T19:40:41.522Z,99.90
2017-05-31T19:43:10.512Z,99.90
2017-05-31T19:45:38.750Z,99.90
2017-05-31T19:48:07.766Z,99.90
2017-05-31T19:50:36.698Z,99.90
2017-05-31T19:53:05.598Z,99.90
2017-05-31T19:55:33.973Z,99.90
2017-05-31T19:58:02.994Z,99.90
2017-05-31T20:00:31.989Z,99.90
2017-05-31T20:03:01.101Z,99.90
2017-05-31T20:05:30.085Z,99.90
2017-05-31T20:07:58.349Z,99.90
2017-05-31T20:10:26.650Z,99.90
2017-05-31T20:12:54.806Z,99.90
2017-05-31T20:15:23.754Z,99.90
2017-05-31T20:17:52.078Z,99.90
2017-05-31T20:20:21.018Z,99.90
2017-05-31T20:22:49.317Z,99.90
2017-05-31T20:25:18.393Z,99.90
2017-05-31T20:27:46.633Z,99.90
2017-05-31T20:30:15.798Z,99.90
2017-05-31T20:32:44.836Z,99.90
2017-05-31T20:35:13.085Z,99.90
2017-05-31T20:37:41.414Z,99.90
2017-05-31T20:40:10.529Z,99.90
2017-05-31T20:42:39.469Z,99.90
2017-05-31T20:45:08.409Z,99.90
2017-05-31T20:47:36.746Z,99.90
2017-05-31T20:50:04.989Z,99.90
2017-05-31T20:52:33.921Z,99.90
2017-05-31T20:55:02.990Z,99.90
2017-05-31T20:57:31.921Z,99.90
2017-05-31T21:00:01.006Z,99.90
2017-05-31T21:02:30.037Z,99.90
2017-05-31T21:04:58.245Z,99.90
2017-05-31T21:07:27.234Z,99.90
2017-05-31T21:09:56.395Z,99.90
2017-05-31T21:12:25.294Z,99.90
2017-05-31T21:14:54.182Z,99.90
2017-05-31T21:17:23.294Z,99.90
2017-05-31T21:19:52.166Z,99.90
2017-05-31T21:22:21.094Z,99.90
2017-05-31T21:24:49.394Z,99.90
2017-05-31T21:27:18.409Z,99.90
2017-05-31T21:29:46.557Z,99.90
2017-05-31T21:32:15.662Z,99.90
2017-05-31T21:34:44.594Z,99.90
2017-05-31T21:37:13.585Z,99.90
2017-05-31T21:39:42.878Z,99.90
2017-05-31T21:42:11.898Z,99.90
2017-05-31T21:44:40.082Z,99.90
2017-05-31T21:47:08.446Z,99.90
2017-05-31T21:49:37.441Z,99.90
2017-05-31T21:52:05.698Z,99.90
2017-05-31T21:54:34.840Z,99.90
2017-05-31T21:57:03.805Z,99.90
2017-05-31T21:59:32.978Z,99.90
2017-05-31T22:02:02.138Z,99.90
2017-05-31T22:04:30.422Z,99.90
2017-05-31T22:06:58.662Z,99.90
2017-05-31T22:09:26.973Z,99.90
2017-05-31T22:11:56.006Z,99.90
2017-05-31T22:14:24.926Z,99.90
2017-05-31T22:16:54.073Z,99.90
2017-05-31T22:19:22.349Z,99.90
2017-05-31T22:21:51.402Z,99.90
2017-05-31T22:24:20.501Z,99.90
2017-05-31T22:26:49.939Z,99.90
2017-05-31T22:29:18.169Z,99.90
2017-05-31T22:31:47.322Z,99.90
2017-05-31T22:34:16.254Z,99.90
2017-05-31T22:36:45.221Z,99.90
2017-05-31T22:39:14.410Z,99.90
2017-05-31T22:41:42.841Z,99.90
2017-05-31T22:44:11.105Z,99.90
2017-05-31T22:46:40.178Z,99.90
2017-05-31T22:49:08.565Z,99.90
2017-05-31T22:51:37.521Z,99.90
2017-05-31T22:54:06.670Z,99.90
2017-05-31T22:56:36.077Z,99.90
2017-05-31T22:59:05.032Z,99.90
2017-05-31T23:01:34.214Z,99.90
2017-05-31T23:04:03.233Z,99.90
2017-05-31T23:06:31.560Z,99.90
2017-05-31T23:09:00.662Z,99.90
2017-05-31T23:11:29.675Z,99.90
2017-05-31T23:13:57.950Z,99.90
2017-05-31T23:16:27.050Z,99.90
2017-05-31T23:18:55.399Z,99.90
2017-05-31T23:21:23.634Z,99.90
2017-05-31T23:23:52.021Z,99.90
2017-05-31T23:26:20.994Z,99.90
2017-05-31T23:28:49.926Z,99.90
2017-05-31T23:31:19.066Z,99.90
2017-05-31T23:33:47.293Z,99.90
2017-05-31T23:36:16.305Z,99.90
2017-05-31T23:38:44.746Z,99.90
2017-05-31T23:41:13.702Z,99.90
2017-05-31T23:43:42.174Z,99.90
2017-05-31T23:46:11.317Z,99.90
2017-05-31T23:48:40.234Z,99.90
2017-05-31T23:51:09.234Z,99.90
2017-05-31T23:53:38.370Z,99.90
2017-05-31T23:56:06.630Z,99.90
2017-05-31T23:58:35.598Z,99.90
